Time;durP1;ratioP1;P1;durP2;ratioP2;P2;SDS_P1;SDS_P2;PMS_P1;PMS_P2;Temp;Humidity;BMP_temperature;BMP_pressure;BME280_temperature;BME280_humidity;BME280_pressure;Samples;Min_cycle;Max_cycle;Signal;HPM_P1;HPM_P2
2022/01/13 00:00:19;;;;;;;7.57;4.72;;;10.10;99.90;;;;;;5046602;28;20036;-67
2022/01/13 00:02:45;;;;;;;7.88;4.65;;;10.00;99.90;;;;;;5043530;28;20056;-67
2022/01/13 00:05:11;;;;;;;7.40;4.40;;;10.00;99.90;;;;;;5045631;28;20021;-67
2022/01/13 00:07:37;;;;;;;7.75;4.75;;;10.00;99.90;;;;;;5034971;28;20041;-66
2022/01/13 00:10:04;;;;;;;6.55;4.22;;;10.00;99.90;;;;;;5038016;28;20014;-66
2022/01/13 00:12:35;;;;;;;6.22;3.90;;;10.00;99.90;;;;;;5043348;28;20025;-67
2022/01/13 00:15:20;;;;;;;6.75;4.25;;;10.00;99.90;;;;;;5043788;28;20051;-67
2022/01/13 00:25:14;;;;;;;7.22;4.40;;;9.90;99.90;;;;;;5041330;28;20030;-66
2022/01/13 00:27:50;;;;;;;7.10;4.75;;;9.90;99.90;;;;;;5045276;28;20032;-67
2022/01/13 00:30:20;;;;;;;6.68;4.25;;;9.90;99.90;;;;;;5043335;28;20066;-66
2022/01/13 00:32:50;;;;;;;5.68;3.53;;;9.90;99.90;;;;;;5031079;28;20108;-66
2022/01/13 00:35:19;;;;;;;5.18;3.75;;;9.80;99.90;;;;;;5051134;28;20029;-67
2022/01/13 00:37:49;;;;;;;6.20;4.20;;;9.80;99.90;;;;;;5048238;28;20171;-67
2022/01/13 00:40:17;;;;;;;5.82;3.80;;;9.70;99.90;;;;;;5045408;28;20107;-67
2022/01/13 00:42:50;;;;;;;7.40;4.45;;;9.60;99.90;;;;;;5043249;28;20060;-66
2022/01/13 00:45:24;;;;;;;7.10;4.55;;;9.60;99.90;;;;;;5030559;28;20465;-66
2022/01/13 00:47:58;;;;;;;6.20;4.28;;;9.60;99.90;;;;;;5037058;28;20028;-67
2022/01/13 00:50:27;;;;;;;8.48;5.35;;;9.60;99.90;;;;;;5047952;28;20601;-66
2022/01/13 00:52:57;;;;;;;6.72;4.57;;;9.60;99.90;;;;;;5033739;28;20030;-67
2022/01/13 00:55:42;;;;;;;8.02;5.78;;;9.50;99.90;;;;;;5038876;28;20499;-67
2022/01/13 00:58:19;;;;;;;9.07;6.32;;;9.60;99.90;;;;;;5040108;28;20095;-67
2022/01/13 01:00:51;;;;;;;8.82;5.95;;;9.60;99.90;;;;;;5041272;28;20049;-67
2022/01/13 01:03:22;;;;;;;8.82;6.32;;;9.60;99.90;;;;;;5030726;28;20049;-66
2022/01/13 01:05:50;;;;;;;8.75;6.80;;;9.60;99.90;;;;;;5033944;28;20025;-67
2022/01/13 01:08:19;;;;;;;8.50;6.20;;;9.60;99.90;;;;;;5041599;28;20386;-67
2022/01/13 01:10:54;;;;;;;8.48;6.30;;;9.60;99.90;;;;;;5035269;28;20083;-67
2022/01/13 01:13:28;;;;;;;7.60;5.32;;;9.60;99.90;;;;;;5033085;28;20036;-67
2022/01/13 01:15:57;;;;;;;8.27;5.90;;;9.60;99.90;;;;;;5032831;28;20112;-67
2022/01/13 01:21:17;;;;;;;8.13;5.53;;;9.50;99.90;;;;;;5045451;28;20032;-67
2022/01/13 01:28:52;;;;;;;8.35;6.07;;;9.10;99.90;;;;;;5046624;28;20035;-67
2022/01/13 01:31:25;;;;;;;9.13;6.30;;;9.00;99.90;;;;;;5043023;28;20030;-67
2022/01/13 01:34:03;;;;;;;9.18;6.10;;;8.80;99.90;;;;;;5040698;28;20043;-67
2022/01/13 01:36:29;;;;;;;9.63;6.25;;;8.70;99.90;;;;;;5046151;28;20448;-67
2022/01/13 01:38:56;;;;;;;8.68;6.30;;;8.60;99.90;;;;;;5042280;28;20032;-67
2022/01/13 01:41:22;;;;;;;9.10;6.53;;;8.50;99.90;;;;;;5035782;28;20041;-67
2022/01/13 01:43:49;;;;;;;8.95;6.57;;;8.40;99.90;;;;;;5040575;28;20021;-67
2022/01/13 01:46:15;;;;;;;9.18;6.53;;;8.30;99.90;;;;;;5047387;28;20036;-67
2022/01/13 01:48:41;;;;;;;9.07;6.40;;;8.20;99.90;;;;;;5049100;28;20024;-67
2022/01/13 01:51:07;;;;;;;9.27;6.80;;;8.10;99.90;;;;;;5047525;28;20100;-67
2022/01/13 01:53:33;;;;;;;9.93;6.10;;;8.00;99.90;;;;;;5050345;28;20598;-67
2022/01/13 01:55:59;;;;;;;9.45;6.70;;;7.90;99.90;;;;;;5040359;28;20029;-66
2022/01/13 01:58:27;;;;;;;10.70;7.05;;;7.90;99.90;;;;;;5047488;28;20032;-67
2022/01/13 02:00:54;;;;;;;11.48;6.75;;;7.80;99.90;;;;;;5044798;28;20032;-67
2022/01/13 02:03:22;;;;;;;9.55;6.45;;;7.70;99.90;;;;;;5047274;28;20078;-66
2022/01/13 02:05:48;;;;;;;9.95;6.63;;;7.60;99.90;;;;;;5046007;28;20488;-67
2022/01/13 02:08:14;;;;;;;8.88;6.35;;;7.60;99.90;;;;;;5035942;28;20660;-67
2022/01/13 02:10:40;;;;;;;9.55;6.40;;;7.50;99.90;;;;;;5040228;28;20033;-67
2022/01/13 02:13:10;;;;;;;11.20;7.00;;;7.40;99.90;;;;;;5036863;28;20029;-67
2022/01/13 02:15:48;;;;;;;10.80;7.07;;;7.30;99.90;;;;;;5047307;28;20032;-67
2022/01/13 02:18:15;;;;;;;10.00;6.85;;;7.30;99.90;;;;;;5043616;28;20042;-67
2022/01/13 02:20:52;;;;;;;10.38;6.80;;;7.20;99.90;;;;;;5046523;28;20029;-67
2022/01/13 02:23:47;;;;;;;10.75;6.30;;;7.20;99.90;;;;;;5037792;28;20037;-66
2022/01/13 02:26:14;;;;;;;10.35;6.88;;;7.10;99.90;;;;;;5044113;28;20519;-67
2022/01/13 02:28:40;;;;;;;10.32;6.78;;;7.10;99.90;;;;;;5044979;28;20025;-66
2022/01/13 02:31:05;;;;;;;9.50;6.53;;;7.00;99.90;;;;;;5039090;28;20029;-67
2022/01/13 02:33:31;;;;;;;10.07;6.32;;;7.00;99.90;;;;;;5037729;28;20415;-66
2022/01/13 02:35:57;;;;;;;9.25;6.22;;;7.00;99.90;;;;;;5031868;28;20116;-66
2022/01/13 02:38:23;;;;;;;10.25;7.05;;;7.00;99.90;;;;;;5040231;28;20396;-66
2022/01/13 02:40:55;;;;;;;11.40;6.82;;;7.00;99.90;;;;;;5036882;28;20036;-67
2022/01/13 02:43:22;;;;;;;11.73;6.93;;;7.00;99.90;;;;;;5041516;28;20025;-67
2022/01/13 02:46:18;;;;;;;14.05;6.65;;;7.00;99.90;;;;;;5045249;28;20515;-67
2022/01/13 02:48:45;;;;;;;9.70;6.47;;;7.00;99.90;;;;;;5036923;28;20021;-67
2022/01/13 02:51:11;;;;;;;11.68;7.00;;;7.10;99.90;;;;;;5038876;28;20029;-67
2022/01/13 02:53:36;;;;;;;10.82;7.07;;;7.20;99.90;;;;;;5057164;28;20025;-67
2022/01/13 02:56:06;;;;;;;13.05;7.05;;;7.20;99.90;;;;;;5044888;28;20033;-67
2022/01/13 02:58:34;;;;;;;10.20;6.80;;;7.30;99.90;;;;;;5044247;28;20021;-67
2022/01/13 03:01:01;;;;;;;11.23;7.43;;;7.40;99.90;;;;;;5043013;28;20076;-67
2022/01/13 03:03:29;;;;;;;10.25;6.90;;;7.40;99.90;;;;;;5042375;28;20066;-66
2022/01/13 03:05:54;;;;;;;11.32;7.35;;;7.50;99.90;;;;;;5031752;28;20049;-67
2022/01/13 03:08:20;;;;;;;10.75;7.25;;;7.50;99.90;;;;;;5038334;28;20100;-67
2022/01/13 03:10:46;;;;;;;12.68;7.45;;;7.60;99.90;;;;;;5037004;28;20033;-67
2022/01/13 03:13:12;;;;;;;11.00;7.32;;;7.60;99.90;;;;;;5037586;28;20078;-66
2022/01/13 03:15:38;;;;;;;11.45;7.43;;;7.60;99.90;;;;;;5034973;28;20032;-66
2022/01/13 03:18:04;;;;;;;12.40;7.38;;;7.60;99.90;;;;;;5031510;28;20032;-67
2022/01/13 03:20:30;;;;;;;11.80;7.50;;;7.60;99.90;;;;;;5050159;28;20037;-66
2022/01/13 03:22:55;;;;;;;11.85;7.50;;;7.70;99.90;;;;;;5045224;28;20104;-67
2022/01/13 03:25:23;;;;;;;11.35;7.30;;;7.70;99.90;;;;;;5040067;28;20107;-67
2022/01/13 03:27:58;;;;;;;10.27;6.90;;;7.80;99.90;;;;;;5035105;28;20025;-67
2022/01/13 03:30:24;;;;;;;12.02;7.55;;;7.80;99.90;;;;;;5045027;28;20044;-67
2022/01/13 03:32:50;;;;;;;10.43;7.55;;;7.80;99.90;;;;;;5043996;28;20032;-67
2022/01/13 03:35:16;;;;;;;10.43;7.28;;;7.90;99.90;;;;;;5047785;28;20378;-67
2022/01/13 03:37:42;;;;;;;10.75;7.30;;;7.90;99.90;;;;;;5040698;28;20021;-67
2022/01/13 03:40:08;;;;;;;12.50;8.27;;;7.90;99.90;;;;;;5042934;28;20025;-66
2022/01/13 03:42:34;;;;;;;14.10;8.45;;;7.90;99.90;;;;;;5034102;28;20541;-67
2022/01/13 03:45:00;;;;;;;13.15;8.40;;;7.90;99.90;;;;;;5032232;28;20033;-67
2022/01/13 03:47:26;;;;;;;12.88;7.95;;;8.00;99.90;;;;;;5046037;28;20373;-67
2022/01/13 03:49:54;;;;;;;12.85;8.15;;;8.00;99.90;;;;;;5043323;28;20049;-67
2022/01/13 03:52:22;;;;;;;13.85;8.48;;;8.00;99.90;;;;;;5039486;28;20033;-67
2022/01/13 03:55:25;;;;;;;13.20;8.43;;;8.00;99.90;;;;;;5033908;28;20032;-66
2022/01/13 03:58:15;;;;;;;14.43;8.57;;;8.10;99.90;;;;;;5035366;28;20033;-66
2022/01/13 04:00:58;;;;;;;12.35;8.25;;;8.10;99.90;;;;;;5037901;28;20104;-67
2022/01/13 04:03:24;;;;;;;14.45;8.85;;;8.10;99.90;;;;;;5050998;28;20507;-67
2022/01/13 04:06:37;;;;;;;14.52;8.75;;;8.10;99.90;;;;;;5031195;28;20029;-67
2022/01/13 04:09:28;;;;;;;14.80;9.23;;;8.10;99.90;;;;;;5039871;28;20021;-67
2022/01/13 04:11:54;;;;;;;13.40;8.40;;;8.10;99.90;;;;;;5025276;28;20042;-67
2022/01/13 04:14:28;;;;;;;14.52;8.90;;;8.10;99.90;;;;;;5012378;28;20089;-66
2022/01/13 04:16:54;;;;;;;13.25;8.00;;;8.10;99.90;;;;;;5011643;28;20520;-67
2022/01/13 04:19:20;;;;;;;14.85;9.23;;;8.10;99.90;;;;;;5011040;28;20029;-67
2022/01/13 04:21:47;;;;;;;15.23;9.50;;;8.10;99.90;;;;;;5012183;28;20030;-67
2022/01/13 04:24:13;;;;;;;15.60;9.65;;;8.10;99.90;;;;;;5009196;28;20470;-67
2022/01/13 04:26:41;;;;;;;13.43;8.95;;;8.10;99.90;;;;;;5016341;28;20069;-67
2022/01/13 04:31:36;;;;;;;13.35;8.85;;;8.10;99.90;;;;;;5012556;28;20405;-67
2022/01/13 04:34:02;;;;;;;14.75;9.40;;;8.10;99.90;;;;;;5014791;28;20100;-66
2022/01/13 04:36:28;;;;;;;15.60;10.10;;;8.20;99.90;;;;;;5012886;28;20605;-67
2022/01/13 04:38:54;;;;;;;15.18;9.75;;;8.10;99.90;;;;;;5012884;28;20551;-67
2022/01/13 04:41:30;;;;;;;15.50;9.80;;;8.20;99.90;;;;;;5011597;28;20034;-67
2022/01/13 04:43:56;;;;;;;16.05;9.40;;;8.20;99.90;;;;;;5019390;28;20037;-67
2022/01/13 04:46:23;;;;;;;16.13;10.13;;;8.10;99.90;;;;;;5012321;28;20030;-67
2022/01/13 04:48:49;;;;;;;16.70;9.50;;;8.20;99.90;;;;;;5030137;28;20067;-67
2022/01/13 04:51:14;;;;;;;17.33;10.05;;;8.20;99.90;;;;;;5032676;28;20520;-67
2022/01/13 04:53:40;;;;;;;19.75;10.57;;;8.20;99.90;;;;;;5043265;28;20520;-67
2022/01/13 04:56:11;;;;;;;17.73;11.15;;;8.20;99.90;;;;;;5046148;28;20033;-66
2022/01/13 04:58:37;;;;;;;16.25;10.70;;;8.20;99.90;;;;;;5047626;28;20017;-66
2022/01/13 05:01:04;;;;;;;18.25;11.18;;;8.20;99.90;;;;;;5046618;28;20519;-67
2022/01/13 05:03:30;;;;;;;16.42;10.90;;;8.10;99.90;;;;;;5042942;28;20059;-66
2022/01/13 05:05:55;;;;;;;16.65;11.00;;;8.20;99.90;;;;;;5039518;28;20197;-67
2022/01/13 05:08:21;;;;;;;16.27;10.40;;;8.20;99.90;;;;;;5036539;28;20017;-67
2022/01/13 05:10:47;;;;;;;16.52;10.43;;;8.20;99.90;;;;;;5045605;28;20067;-66
2022/01/13 05:13:13;;;;;;;15.25;10.07;;;8.10;99.90;;;;;;5047997;28;20515;-66
2022/01/13 05:15:41;;;;;;;16.45;10.65;;;8.20;99.90;;;;;;5044225;28;20539;-67
2022/01/13 05:18:22;;;;;;;15.70;9.70;;;8.10;99.90;;;;;;5045283;28;20029;-67
2022/01/13 05:20:57;;;;;;;16.95;10.02;;;8.10;99.90;;;;;;5044777;28;20032;-67
2022/01/13 05:23:23;;;;;;;16.27;10.38;;;8.10;99.90;;;;;;5046887;28;20036;-67
2022/01/13 05:25:49;;;;;;;17.15;10.93;;;8.10;99.90;;;;;;5041503;28;20392;-67
2022/01/13 05:28:15;;;;;;;15.27;9.45;;;8.10;99.90;;;;;;5046699;28;20575;-66
2022/01/13 05:30:41;;;;;;;16.50;9.70;;;8.10;99.90;;;;;;5048753;28;20524;-66
2022/01/13 05:33:07;;;;;;;16.17;9.77;;;8.10;99.90;;;;;;5046507;28;20041;-67
2022/01/13 05:35:34;;;;;;;16.98;10.23;;;8.10;99.90;;;;;;5047096;28;20029;-67
2022/01/13 05:38:00;;;;;;;17.10;10.20;;;8.00;99.90;;;;;;5047172;28;20025;-67
2022/01/13 05:40:26;;;;;;;16.25;9.45;;;8.00;99.90;;;;;;5049113;28;20021;-67
2022/01/13 05:42:52;;;;;;;16.55;9.40;;;8.00;99.90;;;;;;5046770;28;20098;-66
2022/01/13 05:45:20;;;;;;;14.73;8.68;;;8.00;99.90;;;;;;5049914;28;20028;-66
2022/01/13 05:47:51;;;;;;;15.52;9.00;;;8.00;99.90;;;;;;5048850;28;20539;-66
2022/01/13 05:50:19;;;;;;;14.52;8.68;;;8.00;99.90;;;;;;5049813;28;20037;-65
2022/01/13 05:52:44;;;;;;;14.75;8.50;;;8.00;99.90;;;;;;5038588;28;20029;-66
2022/01/13 05:55:11;;;;;;;16.65;9.63;;;8.00;99.90;;;;;;5058123;28;20048;-65
2022/01/13 05:57:37;;;;;;;14.75;8.68;;;7.90;99.90;;;;;;5046472;28;20025;-67
2022/01/13 06:00:08;;;;;;;15.70;9.55;;;7.90;99.90;;;;;;5047565;28;20033;-66
2022/01/13 06:02:34;;;;;;;15.10;9.18;;;7.90;99.90;;;;;;5051086;28;20045;-66
2022/01/13 06:05:00;;;;;;;15.95;9.82;;;8.00;99.90;;;;;;5047252;28;20048;-66
2022/01/13 06:07:25;;;;;;;15.55;9.70;;;7.90;99.90;;;;;;5047575;28;20021;-67
2022/01/13 06:09:51;;;;;;;13.77;8.85;;;7.90;99.90;;;;;;5046177;28;20033;-67
2022/01/13 06:12:19;;;;;;;14.88;9.07;;;7.90;99.90;;;;;;5046613;28;20029;-67
2022/01/13 06:14:45;;;;;;;15.85;10.57;;;7.90;99.90;;;;;;5049356;28;20033;-66
2022/01/13 06:17:11;;;;;;;16.77;10.02;;;7.90;99.90;;;;;;5053787;28;20044;-67
2022/01/13 06:19:37;;;;;;;15.80;10.10;;;7.90;99.90;;;;;;5046250;28;20029;-67
2022/01/13 06:22:03;;;;;;;17.30;9.63;;;7.90;99.90;;;;;;5042835;28;20109;-67
2022/01/13 06:24:29;;;;;;;11.30;6.32;;;7.90;99.90;;;;;;5051257;28;20024;-68
2022/01/13 06:26:55;;;;;;;10.90;5.85;;;7.90;99.90;;;;;;5046424;28;20500;-67
2022/01/13 06:29:20;;;;;;;11.40;7.40;;;7.80;99.90;;;;;;5050398;28;20028;-67
2022/01/13 06:31:46;;;;;;;10.32;6.38;;;7.80;99.90;;;;;;5043780;28;20044;-68
2022/01/13 06:34:12;;;;;;;14.45;8.50;;;7.80;99.90;;;;;;5052603;28;20036;-67
2022/01/13 06:36:37;;;;;;;15.10;9.25;;;7.80;99.90;;;;;;5046768;28;20591;-67
2022/01/13 06:39:03;;;;;;;16.75;10.80;;;7.80;99.90;;;;;;5045221;28;20043;-68
2022/01/13 06:41:29;;;;;;;67.32;31.50;;;7.80;99.90;;;;;;5041045;28;20089;-68
2022/01/13 06:43:55;;;;;;;16.20;10.10;;;7.80;99.90;;;;;;5037069;28;20091;-68
2022/01/13 06:46:21;;;;;;;20.40;12.02;;;7.80;99.90;;;;;;5035470;28;20032;-67
2022/01/13 06:48:47;;;;;;;19.52;11.27;;;7.70;99.90;;;;;;5045051;28;20076;-67
2022/01/13 06:51:14;;;;;;;15.82;9.88;;;7.60;99.90;;;;;;5062782;28;20678;-67
2022/01/13 06:53:40;;;;;;;17.45;10.07;;;7.60;99.90;;;;;;5044554;28;20432;-66
2022/01/13 06:56:06;;;;;;;17.20;9.93;;;7.50;99.90;;;;;;5048344;28;20033;-67
2022/01/13 06:58:32;;;;;;;17.73;9.60;;;7.50;99.90;;;;;;5044732;28;20546;-67
2022/01/13 07:00:57;;;;;;;19.23;9.95;;;7.30;99.90;;;;;;5044606;28;20049;-67
2022/01/13 07:03:23;;;;;;;19.27;10.25;;;7.30;99.90;;;;;;5043540;28;20021;-67
2022/01/13 07:05:49;;;;;;;18.83;10.77;;;7.20;99.90;;;;;;5048093;28;20282;-67
2022/01/13 07:08:15;;;;;;;272.77;121.70;;;7.10;99.90;;;;;;5050095;28;20400;-67
2022/01/13 07:10:41;;;;;;;75.85;45.50;;;7.00;99.90;;;;;;5041638;28;20029;-67
2022/01/13 07:13:07;;;;;;;57.67;43.55;;;6.90;99.90;;;;;;5046854;28;20025;-67
2022/01/13 07:15:33;;;;;;;42.13;32.25;;;6.80;99.90;;;;;;5044924;28;20025;-67
2022/01/13 07:17:59;;;;;;;40.05;20.45;;;6.70;99.90;;;;;;5043470;28;20471;-67
2022/01/13 07:20:27;;;;;;;23.60;13.85;;;6.60;99.90;;;;;;5047554;28;20017;-66
2022/01/13 07:22:53;;;;;;;22.25;12.77;;;6.60;99.90;;;;;;5048129;28;20028;-67
2022/01/13 07:25:19;;;;;;;21.15;12.02;;;6.50;99.90;;;;;;5043830;28;20032;-66
2022/01/13 07:27:45;;;;;;;22.35;13.25;;;6.40;99.90;;;;;;5039873;28;20033;-66
2022/01/13 07:30:12;;;;;;;21.63;11.55;;;6.40;99.90;;;;;;5042474;28;20084;-67
2022/01/13 07:32:39;;;;;;;20.40;10.68;;;6.30;99.90;;;;;;5035434;28;20412;-67
2022/01/13 07:35:06;;;;;;;19.52;10.50;;;6.30;99.90;;;;;;5039974;28;20559;-67
2022/01/13 07:37:32;;;;;;;22.92;11.25;;;6.20;99.90;;;;;;5044339;28;20029;-68
2022/01/13 07:39:57;;;;;;;20.13;10.48;;;6.20;99.90;;;;;;5043810;28;20540;-67
2022/01/13 07:42:25;;;;;;;19.10;10.65;;;6.10;99.90;;;;;;5043166;28;20124;-68
2022/01/13 07:44:52;;;;;;;18.33;11.05;;;6.10;99.90;;;;;;5050316;28;20064;-67
2022/01/13 07:47:18;;;;;;;20.88;11.23;;;6.00;99.90;;;;;;5045290;28;20039;-67
2022/01/13 07:49:44;;;;;;;21.92;11.48;;;6.00;99.90;;;;;;5045185;28;20020;-67
2022/01/13 07:52:10;;;;;;;20.98;10.98;;;6.00;99.90;;;;;;5047189;28;20548;-67
2022/01/13 07:54:36;;;;;;;21.30;11.35;;;5.90;99.90;;;;;;5046045;28;20013;-67
2022/01/13 07:57:02;;;;;;;24.45;12.23;;;5.90;99.90;;;;;;5049942;28;20124;-67
2022/01/13 07:59:29;;;;;;;22.80;11.88;;;5.90;99.90;;;;;;5039236;28;20020;-66
2022/01/13 08:01:56;;;;;;;21.85;11.15;;;5.80;99.90;;;;;;5045812;28;20057;-67
2022/01/13 08:04:22;;;;;;;22.30;11.82;;;5.80;99.90;;;;;;5043490;28;20067;-66
2022/01/13 08:06:50;;;;;;;21.75;10.82;;;5.90;99.90;;;;;;5045775;28;20041;-67
2022/01/13 08:09:16;;;;;;;21.88;11.10;;;5.90;99.90;;;;;;5043270;28;20048;-67
2022/01/13 08:11:42;;;;;;;21.73;10.82;;;6.10;99.90;;;;;;5032544;28;20033;-67
2022/01/13 08:14:07;;;;;;;24.90;13.65;;;6.20;99.90;;;;;;5045547;28;20399;-66
2022/01/13 08:16:35;;;;;;;20.55;10.88;;;6.30;99.90;;;;;;5045951;28;20032;-67
2022/01/13 08:21:47;;;;;;;16.05;8.30;;;6.50;99.90;;;;;;5038344;28;20581;-67
2022/01/13 08:24:13;;;;;;;16.55;8.30;;;6.60;99.90;;;;;;5039710;28;20959;-67
2022/01/13 08:26:39;;;;;;;20.13;10.60;;;6.60;99.90;;;;;;5046551;28;20025;-67
2022/01/13 08:29:05;;;;;;;18.52;9.65;;;6.70;99.90;;;;;;5048829;28;20083;-66
2022/01/13 08:31:31;;;;;;;19.30;10.27;;;6.70;99.90;;;;;;5034768;28;20037;-66
2022/01/13 08:33:57;;;;;;;25.13;14.63;;;6.80;99.90;;;;;;5050811;28;20513;-66
2022/01/13 08:36:23;;;;;;;17.88;9.43;;;6.80;99.90;;;;;;5045717;28;20079;-67
2022/01/13 08:38:49;;;;;;;16.75;8.52;;;6.90;99.90;;;;;;5040757;28;20025;-66
2022/01/13 08:41:15;;;;;;;17.80;9.30;;;6.90;99.90;;;;;;5045890;28;20104;-67
2022/01/13 08:43:41;;;;;;;16.70;9.02;;;7.00;99.90;;;;;;5040722;28;20108;-66
2022/01/13 08:46:07;;;;;;;17.65;9.32;;;7.00;99.90;;;;;;5041601;28;20096;-67
2022/01/13 08:48:34;;;;;;;18.52;9.82;;;7.10;99.90;;;;;;5042381;28;20025;-67
2022/01/13 08:51:01;;;;;;;19.15;9.88;;;7.10;99.90;;;;;;5046671;28;20029;-67
2022/01/13 08:53:27;;;;;;;18.10;9.07;;;7.20;99.90;;;;;;5043795;28;20029;-67
2022/01/13 08:55:54;;;;;;;17.83;8.93;;;7.30;99.90;;;;;;5039177;28;20032;-68
2022/01/13 08:58:22;;;;;;;15.98;8.27;;;7.40;99.90;;;;;;5038142;28;20026;-67
2022/01/13 09:00:50;;;;;;;21.38;12.80;;;7.60;99.90;;;;;;5044240;28;20043;-65
2022/01/13 09:03:16;;;;;;;16.90;9.40;;;7.70;99.90;;;;;;5044214;28;20440;-66
2022/01/13 09:05:43;;;;;;;17.08;9.43;;;7.80;99.90;;;;;;5047421;28;20579;-66
2022/01/13 09:08:10;;;;;;;17.17;9.05;;;7.80;99.90;;;;;;5037063;28;20036;-66
2022/01/13 09:10:39;;;;;;;19.02;10.50;;;7.80;99.90;;;;;;5045419;28;20485;-66
2022/01/13 09:13:14;;;;;;;17.33;9.75;;;7.90;99.90;;;;;;5043734;28;20040;-66
2022/01/13 09:15:46;;;;;;;18.17;9.68;;;7.90;99.90;;;;;;5032889;28;20056;-66
2022/01/13 09:18:31;;;;;;;16.63;9.23;;;7.90;99.90;;;;;;5045870;28;20032;-66
2022/01/13 09:20:57;;;;;;;18.38;9.93;;;8.00;99.90;;;;;;5046682;28;20037;-66
2022/01/13 09:23:23;;;;;;;15.18;9.10;;;8.10;99.90;;;;;;5050475;28;20099;-67
2022/01/13 09:25:49;;;;;;;16.52;10.65;;;8.40;99.90;;;;;;5041358;28;20163;-67
2022/01/13 09:28:14;;;;;;;16.15;9.00;;;8.90;99.90;;;;;;5036755;28;20029;-67
2022/01/13 09:30:40;;;;;;;15.23;9.02;;;9.50;98.30;;;;;;5039352;28;20385;-67
2022/01/13 09:33:07;;;;;;;17.80;10.27;;;9.70;97.70;;;;;;5042741;28;20503;-66
2022/01/13 09:35:34;;;;;;;16.92;9.00;;;9.50;97.70;;;;;;5048735;28;20037;-66
2022/01/13 09:38:01;;;;;;;18.17;9.73;;;9.60;98.50;;;;;;5047183;28;20049;-66
2022/01/13 09:40:27;;;;;;;18.00;11.75;;;9.60;98.30;;;;;;5044217;28;20040;-66
2022/01/13 09:42:54;;;;;;;17.85;8.98;;;9.80;97.00;;;;;;5038468;28;20034;-66
2022/01/13 09:45:21;;;;;;;21.13;13.60;;;10.20;95.60;;;;;;5047033;28;20064;-66
2022/01/13 09:47:51;;;;;;;17.92;10.40;;;10.50;93.80;;;;;;5043873;28;20025;-66
2022/01/13 09:50:19;;;;;;;14.13;8.83;;;10.70;92.90;;;;;;5049244;28;20224;-66
2022/01/13 09:52:49;;;;;;;16.30;9.60;;;10.70;92.60;;;;;;5053583;28;20033;-67
2022/01/13 09:55:15;;;;;;;15.82;9.73;;;10.70;92.50;;;;;;5046581;28;20550;-67
2022/01/13 09:57:47;;;;;;;17.23;10.55;;;10.60;92.10;;;;;;5049271;28;20044;-67
2022/01/13 10:00:24;;;;;;;15.40;9.30;;;10.70;91.90;;;;;;5046458;28;20029;-67
2022/01/13 10:02:50;;;;;;;17.25;9.13;;;10.60;92.10;;;;;;5047931;28;20053;-67
2022/01/13 10:05:18;;;;;;;14.20;8.75;;;10.70;91.70;;;;;;5048709;28;20060;-67
2022/01/13 10:07:46;;;;;;;15.73;9.55;;;10.70;92.10;;;;;;5042263;28;20096;-67
2022/01/13 10:10:15;;;;;;;14.55;8.77;;;10.80;91.60;;;;;;5046290;28;20226;-67
2022/01/13 10:12:44;;;;;;;15.05;9.93;;;10.80;91.00;;;;;;5042252;28;20108;-67
2022/01/13 10:18:00;;;;;;;15.57;10.95;;;11.40;90.10;;;;;;5035029;28;20041;-66
2022/01/13 10:20:26;;;;;;;15.65;9.70;;;13.20;79.70;;;;;;5040156;28;20033;-66
2022/01/13 10:22:53;;;;;;;12.88;7.90;;;15.90;64.00;;;;;;5036921;28;20026;-67
2022/01/13 10:25:40;;;;;;;15.68;13.15;;;18.10;53.30;;;;;;5039200;28;20482;-67
2022/01/13 10:28:17;;;;;;;15.05;13.50;;;19.80;46.80;;;;;;5033787;28;20026;-67
2022/01/13 10:30:47;;;;;;;15.32;13.75;;;21.10;43.50;;;;;;5056903;28;20037;-67
2022/01/13 10:33:19;;;;;;;15.93;13.38;;;22.10;41.10;;;;;;5056467;28;20076;-68
2022/01/13 10:35:46;;;;;;;12.60;11.15;;;23.20;39.00;;;;;;5046402;28;20087;-68
2022/01/13 10:38:16;;;;;;;14.30;12.45;;;23.60;37.10;;;;;;5048831;28;20037;-67
2022/01/13 10:40:53;;;;;;;13.73;12.33;;;23.50;36.60;;;;;;5046852;28;20021;-67
2022/01/13 10:43:23;;;;;;;12.10;8.60;;;23.70;35.60;;;;;;5046948;28;20116;-66
2022/01/13 10:45:50;;;;;;;13.27;10.50;;;22.80;36.30;;;;;;5050002;28;20041;-67
2022/01/13 10:48:19;;;;;;;15.00;12.88;;;21.70;38.70;;;;;;5046484;28;20064;-67
2022/01/13 10:50:47;;;;;;;14.68;12.68;;;22.30;37.80;;;;;;5048085;28;20289;-67
2022/01/13 10:53:33;;;;;;;14.85;13.30;;;23.80;35.50;;;;;;5047868;28;20037;-67
2022/01/13 10:56:04;;;;;;;15.07;13.32;;;24.80;33.40;;;;;;5046517;28;20032;-67
2022/01/13 10:58:47;;;;;;;15.73;12.70;;;24.20;33.40;;;;;;5033603;28;20425;-67
2022/01/13 11:01:14;;;;;;;14.40;13.00;;;24.80;32.80;;;;;;5044928;28;20504;-67
2022/01/13 11:03:42;;;;;;;11.80;9.73;;;25.70;31.30;;;;;;5044055;28;20051;-67
2022/01/13 11:06:09;;;;;;;14.10;12.73;;;25.00;31.80;;;;;;5041914;28;20044;-67
2022/01/13 11:08:44;;;;;;;14.93;13.43;;;25.50;31.90;;;;;;5042095;28;20093;-67
2022/01/13 11:11:21;;;;;;;12.88;11.57;;;26.50;30.10;;;;;;5045766;28;20253;-67
2022/01/13 11:13:53;;;;;;;14.20;12.90;;;27.20;29.40;;;;;;5042460;28;20088;-66
2022/01/13 11:16:19;;;;;;;13.45;12.15;;;28.00;28.40;;;;;;5040891;28;20060;-67
2022/01/13 11:18:46;;;;;;;12.45;11.15;;;28.30;28.20;;;;;;5042308;28;20404;-67
2022/01/13 11:21:12;;;;;;;11.45;10.25;;;28.20;27.30;;;;;;5044209;28;20104;-67
2022/01/13 11:23:38;;;;;;;13.20;11.80;;;28.20;27.60;;;;;;5043159;28;20059;-67
2022/01/13 11:26:06;;;;;;;11.40;10.20;;;28.50;27.90;;;;;;5045727;28;20033;-67
2022/01/13 11:28:35;;;;;;;10.35;9.25;;;29.00;27.30;;;;;;5037819;28;20036;-67
2022/01/13 11:31:01;;;;;;;11.30;9.50;;;29.20;26.80;;;;;;5036238;28;20036;-67
2022/01/13 11:33:27;;;;;;;11.07;9.60;;;29.60;26.50;;;;;;5034782;28;20021;-67
2022/01/13 11:35:56;;;;;;;10.77;9.68;;;29.80;26.20;;;;;;5040345;28;20068;-67
2022/01/13 11:38:24;;;;;;;10.35;8.88;;;29.90;26.70;;;;;;5048151;28;20332;-68
2022/01/13 11:40:58;;;;;;;10.43;8.52;;;29.80;25.10;;;;;;5044925;28;20061;-68
2022/01/13 11:43:28;;;;;;;9.05;8.07;;;29.40;25.70;;;;;;5038480;28;20030;-68
2022/01/13 11:45:55;;;;;;;10.02;8.63;;;28.80;25.90;;;;;;5034104;28;20116;-67
2022/01/13 11:48:26;;;;;;;9.63;8.35;;;28.80;26.30;;;;;;5043934;28;20609;-67
2022/01/13 11:51:14;;;;;;;9.68;8.10;;;29.10;26.30;;;;;;5044302;28;20522;-67
2022/01/13 11:54:02;;;;;;;10.38;9.10;;;29.50;26.00;;;;;;5046198;28;20029;-68
2022/01/13 11:56:29;;;;;;;10.82;9.73;;;29.60;25.60;;;;;;5044532;28;20094;-67
2022/01/13 11:58:56;;;;;;;8.85;7.57;;;30.00;25.80;;;;;;5046048;28;20025;-67
2022/01/13 12:01:40;;;;;;;9.18;7.47;;;29.70;25.00;;;;;;5039553;28;20594;-67
2022/01/13 12:04:06;;;;;;;9.15;8.10;;;29.40;25.50;;;;;;5040713;28;20026;-67
2022/01/13 12:06:34;;;;;;;10.25;8.10;;;29.90;25.50;;;;;;5039870;28;20033;-67
